sensor_id;sensor_type;location;lat;lon;timestamp;pressure;altitude;pressure_sealevel;temperature;humidity
42621;BME280;28252;53.336;-6.298;2023-03-01T00:00:10;103266.28;;;21.34;87.70
42621;BME280;28252;53.336;-6.298;2023-03-01T00:00:44;103264.53;;;21.33;87.26
42621;BME280;28252;53.336;-6.298;2023-03-01T00:01:18;103267.25;;;21.33;87.60
42621;BME280;28252;53.336;-6.298;2023-03-01T00:01:54;103260.00;;;21.34;87.70
42621;BME280;28252;53.336;-6.298;2023-03-01T00:02:27;103262.81;;;21.32;87.49
42621;BME280;28252;53.336;-6.298;2023-03-01T00:03:05;103255.66;;;21.31;87.37
42621;BME280;28252;53.336;-6.298;2023-03-01T00:03:41;103259.09;;;21.33;87.11
42621;BME280;28252;53.336;-6.298;2023-03-01T00:04:12;103262.81;;;21.32;87.20
42621;BME280;28252;53.336;-6.298;2023-03-01T00:04:45;103252.94;;;21.31;87.23
42621;BME280;28252;53.336;-6.298;2023-03-01T00:05:16;103253.06;;;21.30;87.42
42621;BME280;28252;53.336;-6.298;2023-03-01T00:05:47;103260.22;;;21.31;87.12
42621;BME280;28252;53.336;-6.298;2023-03-01T00:06:20;103253.06;;;21.30;87.13
42621;BME280;28252;53.336;-6.298;2023-03-01T00:06:53;103257.63;;;21.29;87.28
42621;BME280;28252;53.336;-6.298;2023-03-01T00:07:25;103257.72;;;21.27;87.30
42621;BME280;28252;53.336;-6.298;2023-03-01T00:08:00;103261.28;;;21.28;86.97
42621;BME280;28252;53.336;-6.298;2023-03-01T00:08:31;103256.88;;;21.27;87.09
42621;BME280;28252;53.336;-6.298;2023-03-01T00:09:07;103256.13;;;21.25;87.31
42621;BME280;28252;53.336;-6.298;2023-03-01T00:09:43;103252.41;;;21.26;87.20
42621;BME280;28252;53.336;-6.298;2023-03-01T00:10:16;103251.56;;;21.25;87.45
42621;BME280;28252;53.336;-6.298;2023-03-01T00:10:52;103249.81;;;21.24;87.07
42621;BME280;28252;53.336;-6.298;2023-03-01T00:11:30;103247.22;;;21.23;87.18
42621;BME280;28252;53.336;-6.298;2023-03-01T00:12:04;103249.94;;;21.23;87.14
42621;BME280;28252;53.336;-6.298;2023-03-01T00:12:36;103257.94;;;21.24;87.14
42621;BME280;28252;53.336;-6.298;2023-03-01T00:13:13;103249.94;;;21.23;87.11
42621;BME280;28252;53.336;-6.298;2023-03-01T00:13:52;103247.22;;;21.23;87.50
42621;BME280;28252;53.336;-6.298;2023-03-01T00:14:28;103245.50;;;21.22;87.45
42621;BME280;28252;53.336;-6.298;2023-03-01T00:15:01;103254.59;;;21.21;87.30
42621;BME280;28252;53.336;-6.298;2023-03-01T00:15:38;103254.59;;;21.21;87.28
42621;BME280;28252;53.336;-6.298;2023-03-01T00:16:14;103242.91;;;21.20;87.31
42621;BME280;28252;53.336;-6.298;2023-03-01T00:16:47;103252.91;;;21.20;87.10
42621;BME280;28252;53.336;-6.298;2023-03-01T00:17:18;103251.16;;;21.19;87.45
42621;BME280;28252;53.336;-6.298;2023-03-01T00:17:54;103240.31;;;21.19;87.41
42621;BME280;28252;53.336;-6.298;2023-03-01T00:18:25;103242.16;;;21.18;87.49
42621;BME280;28252;53.336;-6.298;2023-03-01T00:18:58;103247.69;;;21.17;87.53
42621;BME280;28252;53.336;-6.298;2023-03-01T00:19:36;103248.66;;;21.16;87.22
42621;BME280;28252;53.336;-6.298;2023-03-01T00:20:13;103245.97;;;21.16;87.43
42621;BME280;28252;53.336;-6.298;2023-03-01T00:20:55;103245.09;;;21.15;87.30
42621;BME280;28252;53.336;-6.298;2023-03-01T00:21:31;103244.25;;;21.15;87.46
42621;BME280;28252;53.336;-6.298;2023-03-01T00:22:02;103244.25;;;21.15;87.10
42621;BME280;28252;53.336;-6.298;2023-03-01T00:22:36;103244.25;;;21.15;87.17
42621;BME280;28252;53.336;-6.298;2023-03-01T00:23:09;103241.66;;;21.13;87.33
42621;BME280;28252;53.336;-6.298;2023-03-01T00:23:44;103246.19;;;21.13;87.33
42621;BME280;28252;53.336;-6.298;2023-03-01T00:24:17;103247.06;;;21.13;87.19
42621;BME280;28252;53.336;-6.298;2023-03-01T00:24:51;103240.75;;;21.13;87.54
42621;BME280;28252;53.336;-6.298;2023-03-01T00:25:26;103244.47;;;21.12;87.80
42621;BME280;28252;53.336;-6.298;2023-03-01T00:25:57;103244.47;;;21.12;87.39
42621;BME280;28252;53.336;-6.298;2023-03-01T00:26:33;103249.00;;;21.11;87.50
42621;BME280;28252;53.336;-6.298;2023-03-01T00:27:04;103248.16;;;21.11;87.54
42621;BME280;28252;53.336;-6.298;2023-03-01T00:27:43;103239.28;;;21.08;87.65
42621;BME280;28252;53.336;-6.298;2023-03-01T00:28:19;103243.84;;;21.08;87.50
42621;BME280;28252;53.336;-6.298;2023-03-01T00:28:52;103248.38;;;21.07;87.60
42621;BME280;28252;53.336;-6.298;2023-03-01T00:29:28;103242.09;;;21.07;87.48
42621;BME280;28252;53.336;-6.298;2023-03-01T00:30:04;103236.69;;;21.07;87.10
42621;BME280;28252;53.336;-6.298;2023-03-01T00:30:44;103240.34;;;21.06;87.40
42621;BME280;28252;53.336;-6.298;2023-03-01T00:31:18;103239.50;;;21.05;87.32
42621;BME280;28252;53.336;-6.298;2023-03-01T00:31:52;103246.78;;;21.05;87.47
42621;BME280;28252;53.336;-6.298;2023-03-01T00:32:28;103244.91;;;21.05;87.14
42621;BME280;28252;53.336;-6.298;2023-03-01T00:33:04;103245.91;;;21.04;87.29
42621;BME280;28252;53.336;-6.298;2023-03-01T00:33:39;103245.03;;;21.04;87.71
42621;BME280;28252;53.336;-6.298;2023-03-01T00:34:10;103240.59;;;21.03;87.34
42621;BME280;28252;53.336;-6.298;2023-03-01T00:34:46;103239.72;;;21.02;87.14
42621;BME280;28252;53.336;-6.298;2023-03-01T00:35:28;103246.13;;;21.01;87.61
42621;BME280;28252;53.336;-6.298;2023-03-01T00:36:02;103243.44;;;21.01;87.68
42621;BME280;28252;53.336;-6.298;2023-03-01T00:36:34;103240.72;;;21.01;87.53
42621;BME280;28252;53.336;-6.298;2023-03-01T00:37:10;103241.69;;;21.00;87.88
42621;BME280;28252;53.336;-6.298;2023-03-01T00:37:43;103244.41;;;21.00;87.03
42621;BME280;28252;53.336;-6.298;2023-03-01T00:38:19;103243.66;;;20.98;87.62
42621;BME280;28252;53.336;-6.298;2023-03-01T00:38:55;103245.34;;;20.99;87.38
42621;BME280;28252;53.336;-6.298;2023-03-01T00:39:31;103239.94;;;20.99;87.50
42621;BME280;28252;53.336;-6.298;2023-03-01T00:40:04;103238.22;;;20.98;87.63
42621;BME280;28252;53.336;-6.298;2023-03-01T00:40:37;103238.22;;;20.98;87.58
42621;BME280;28252;53.336;-6.298;2023-03-01T00:41:12;103239.19;;;20.97;87.62
42621;BME280;28252;53.336;-6.298;2023-03-01T00:42:46;103240.19;;;20.96;87.74
42621;BME280;28252;53.336;-6.298;2023-03-01T00:43:17;103233.03;;;20.95;88.05
42621;BME280;28252;53.336;-6.298;2023-03-01T00:43:51;103238.44;;;20.95;87.87
42621;BME280;28252;53.336;-6.298;2023-03-01T00:44:30;103235.00;;;20.93;88.10
42621;BME280;28252;53.336;-6.298;2023-03-01T00:45:06;103235.00;;;20.93;87.98
42621;BME280;28252;53.336;-6.298;2023-03-01T00:45:40;103233.25;;;20.92;87.83
42621;BME280;28252;53.336;-6.298;2023-03-01T00:46:17;103229.56;;;20.93;88.16
42621;BME280;28252;53.336;-6.298;2023-03-01T00:46:50;103230.66;;;20.90;88.02
42621;BME280;28252;53.336;-6.298;2023-03-01T00:47:23;103231.53;;;20.91;87.85
42621;BME280;28252;53.336;-6.298;2023-03-01T00:47:54;103227.09;;;20.90;87.94
42621;BME280;28252;53.336;-6.298;2023-03-01T00:48:30;103228.06;;;20.89;87.52
42621;BME280;28252;53.336;-6.298;2023-03-01T00:49:06;103222.63;;;20.89;87.60
42621;BME280;28252;53.336;-6.298;2023-03-01T00:49:40;103224.50;;;20.88;87.75
42621;BME280;28252;53.336;-6.298;2023-03-01T00:50:13;103230.91;;;20.87;87.56
42621;BME280;28252;53.336;-6.298;2023-03-01T00:50:49;103224.59;;;20.87;87.70
42621;BME280;28252;53.336;-6.298;2023-03-01T00:51:24;103234.59;;;20.86;87.68
42621;BME280;28252;53.336;-6.298;2023-03-01T00:51:58;103222.88;;;20.86;87.80
42621;BME280;28252;53.336;-6.298;2023-03-01T00:52:29;103222.88;;;20.86;87.70
42621;BME280;28252;53.336;-6.298;2023-03-01T00:53:02;103226.56;;;20.85;88.10
42621;BME280;28252;53.336;-6.298;2023-03-01T00:53:35;103227.53;;;20.84;88.07
42621;BME280;28252;53.336;-6.298;2023-03-01T00:54:08;103225.81;;;20.83;88.09
42621;BME280;28252;53.336;-6.298;2023-03-01T00:54:47;103222.25;;;20.82;87.81
42621;BME280;28252;53.336;-6.298;2023-03-01T00:55:20;103224.06;;;20.82;88.20
42621;BME280;28252;53.336;-6.298;2023-03-01T00:55:51;103225.06;;;20.81;88.45
42621;BME280;28252;53.336;-6.298;2023-03-01T00:56:27;103225.06;;;20.81;87.91
42621;BME280;28252;53.336;-6.298;2023-03-01T00:57:02;103228.75;;;20.80;88.18
42621;BME280;28252;53.336;-6.298;2023-03-01T00:57:37;103229.59;;;20.80;88.38
42621;BME280;28252;53.336;-6.298;2023-03-01T00:58:13;103228.75;;;20.80;88.42
42621;BME280;28252;53.336;-6.298;2023-03-01T00:58:46;103228.84;;;20.78;88.12
42621;BME280;28252;53.336;-6.298;2023-03-01T00:59:23;103224.44;;;20.77;88.16
42621;BME280;28252;53.336;-6.298;2023-03-01T00:59:57;103225.28;;;20.78;88.06
42621;BME280;28252;53.336;-6.298;2023-03-01T01:00:30;103223.53;;;20.77;88.29
42621;BME280;28252;53.336;-6.298;2023-03-01T01:01:06;103221.84;;;20.76;88.55
42621;BME280;28252;53.336;-6.298;2023-03-01T01:01:42;103226.38;;;20.75;88.30
42621;BME280;28252;53.336;-6.298;2023-03-01T01:02:17;103225.50;;;20.75;88.45
42621;BME280;28252;53.336;-6.298;2023-03-01T01:02:53;103228.22;;;20.75;88.03
42621;BME280;28252;53.336;-6.298;2023-03-01T01:03:24;103221.06;;;20.74;88.14
42621;BME280;28252;53.336;-6.298;2023-03-01T01:04:02;103226.47;;;20.74;88.37
42621;BME280;28252;53.336;-6.298;2023-03-01T01:04:36;103222.06;;;20.73;88.49
42621;BME280;28252;53.336;-6.298;2023-03-01T01:05:10;103221.16;;;20.72;88.11
42621;BME280;28252;53.336;-6.298;2023-03-01T01:05:48;103221.31;;;20.70;87.91
42621;BME280;28252;53.336;-6.298;2023-03-01T01:06:26;103222.28;;;20.69;88.43
42621;BME280;28252;53.336;-6.298;2023-03-01T01:06:57;103229.44;;;20.70;88.42
42621;BME280;28252;53.336;-6.298;2023-03-01T01:07:28;103227.69;;;20.69;88.10
42621;BME280;28252;53.336;-6.298;2023-03-01T01:07:59;103221.41;;;20.69;88.47
42621;BME280;28252;53.336;-6.298;2023-03-01T01:08:33;103231.38;;;20.68;88.35
42621;BME280;28252;53.336;-6.298;2023-03-01T01:09:08;103221.53;;;20.67;88.33
42621;BME280;28252;53.336;-6.298;2023-03-01T01:09:50;103225.19;;;20.66;88.70
42621;BME280;28252;53.336;-6.298;2023-03-01T01:10:25;103219.78;;;20.66;88.69
42621;BME280;28252;53.336;-6.298;2023-03-01T01:10:56;103224.34;;;20.66;88.63
42621;BME280;28252;53.336;-6.298;2023-03-01T01:11:32;103228.91;;;20.65;88.78
42621;BME280;28252;53.336;-6.298;2023-03-01T01:12:08;103226.19;;;20.65;88.82
42621;BME280;28252;53.336;-6.298;2023-03-01T01:12:43;103219.03;;;20.64;88.70
42621;BME280;28252;53.336;-6.298;2023-03-01T01:13:19;103223.59;;;20.64;88.83
42621;BME280;28252;53.336;-6.298;2023-03-01T01:13:55;103216.50;;;20.61;88.69
42621;BME280;28252;53.336;-6.298;2023-03-01T01:14:26;103221.00;;;20.62;88.51
42621;BME280;28252;53.336;-6.298;2023-03-01T01:15:06;103224.63;;;20.61;89.05
42621;BME280;28252;53.336;-6.298;2023-03-01T01:15:40;103216.50;;;20.61;88.89
42621;BME280;28252;53.336;-6.298;2023-03-01T01:16:13;103219.34;;;20.60;89.07
42621;BME280;28252;53.336;-6.298;2023-03-01T01:16:50;103211.22;;;20.60;88.81
42621;BME280;28252;53.336;-6.298;2023-03-01T01:17:25;103216.63;;;20.60;88.88
42621;BME280;28252;53.336;-6.298;2023-03-01T01:18:03;103223.03;;;20.59;89.01
42621;BME280;28252;53.336;-6.298;2023-03-01T01:18:34;103218.47;;;20.59;88.87
42621;BME280;28252;53.336;-6.298;2023-03-01T01:19:08;103223.16;;;20.57;89.17
42621;BME280;28252;53.336;-6.298;2023-03-01T01:19:44;103211.44;;;20.57;89.36
42621;BME280;28252;53.336;-6.298;2023-03-01T01:20:19;103220.44;;;20.57;89.13
42621;BME280;28252;53.336;-6.298;2023-03-01T01:20:52;103224.09;;;20.56;89.04
42621;BME280;28252;53.336;-6.298;2023-03-01T01:21:26;103225.97;;;20.56;89.11
42621;BME280;28252;53.336;-6.298;2023-03-01T01:21:57;103228.78;;;20.54;89.51
42621;BME280;28252;53.336;-6.298;2023-03-01T01:22:31;103226.06;;;20.54;89.10
42621;BME280;28252;53.336;-6.298;2023-03-01T01:23:06;103223.34;;;20.54;89.06
42621;BME280;28252;53.336;-6.298;2023-03-01T01:23:40;103228.78;;;20.54;88.97
42621;BME280;28252;53.336;-6.298;2023-03-01T01:24:14;103227.91;;;20.53;89.07
42621;BME280;28252;53.336;-6.298;2023-03-01T01:24:45;103231.59;;;20.52;89.57
42621;BME280;28252;53.336;-6.298;2023-03-01T01:25:18;103230.72;;;20.52;89.05
42621;BME280;28252;53.336;-6.298;2023-03-01T01:25:54;103229.00;;;20.51;89.32
42621;BME280;28252;53.336;-6.298;2023-03-01T01:26:29;103229.00;;;20.51;89.59
42621;BME280;28252;53.336;-6.298;2023-03-01T01:27:02;103229.97;;;20.50;88.69
42621;BME280;28252;53.336;-6.298;2023-03-01T01:27:38;103227.28;;;20.50;89.33
42621;BME280;28252;53.336;-6.298;2023-03-01T01:28:13;103230.94;;;20.49;89.48
42621;BME280;28252;53.336;-6.298;2023-03-01T01:28:46;103229.19;;;20.48;89.73
42621;BME280;28252;53.336;-6.298;2023-03-01T01:29:20;103236.38;;;20.49;89.59
42621;BME280;28252;53.336;-6.298;2023-03-01T01:29:52;103231.16;;;20.46;89.74
42621;BME280;28252;53.336;-6.298;2023-03-01T01:30:25;103227.59;;;20.45;89.89
42621;BME280;28252;53.336;-6.298;2023-03-01T01:30:59;103224.00;;;20.45;89.57
42621;BME280;28252;53.336;-6.298;2023-03-01T01:31:30;103224.91;;;20.45;89.95
42621;BME280;28252;53.336;-6.298;2023-03-01T01:32:04;103227.72;;;20.44;90.00
42621;BME280;28252;53.336;-6.298;2023-03-01T01:32:39;103227.72;;;20.44;89.79
42621;BME280;28252;53.336;-6.298;2023-03-01T01:33:15;103222.28;;;20.44;90.16
42621;BME280;28252;53.336;-6.298;2023-03-01T01:33:48;103231.38;;;20.43;89.79
42621;BME280;28252;53.336;-6.298;2023-03-01T01:34:20;103232.38;;;20.42;89.87
42621;BME280;28252;53.336;-6.298;2023-03-01T01:34:51;103229.66;;;20.42;89.73
42621;BME280;28252;53.336;-6.298;2023-03-01T01:35:24;103230.63;;;20.41;90.38
42621;BME280;28252;53.336;-6.298;2023-03-01T01:35:58;103230.63;;;20.41;90.21
42621;BME280;28252;53.336;-6.298;2023-03-01T01:36:35;103235.19;;;20.40;89.79
42621;BME280;28252;53.336;-6.298;2023-03-01T01:37:11;103228.03;;;20.39;90.01
42621;BME280;28252;53.336;-6.298;2023-03-01T01:37:44;103229.88;;;20.39;90.09
42621;BME280;28252;53.336;-6.298;2023-03-01T01:38:21;103228.13;;;20.38;90.43
42621;BME280;28252;53.336;-6.298;2023-03-01T01:38:56;103228.13;;;20.38;90.32
42621;BME280;28252;53.336;-6.298;2023-03-01T01:39:30;103231.84;;;20.37;90.23
42621;BME280;28252;53.336;-6.298;2023-03-01T01:40:09;103218.31;;;20.37;90.23
42621;BME280;28252;53.336;-6.298;2023-03-01T01:40:45;103230.94;;;20.36;90.33
42621;BME280;28252;53.336;-6.298;2023-03-01T01:41:20;103230.09;;;20.36;90.09
42621;BME280;28252;53.336;-6.298;2023-03-01T01:41:55;103233.75;;;20.34;90.05
42621;BME280;28252;53.336;-6.298;2023-03-01T01:42:28;103232.06;;;20.33;90.52
42621;BME280;28252;53.336;-6.298;2023-03-01T01:43:04;103227.59;;;20.32;90.80
42621;BME280;28252;53.336;-6.298;2023-03-01T01:43:39;103223.19;;;20.31;90.49
42621;BME280;28252;53.336;-6.298;2023-03-01T01:44:16;103223.19;;;20.31;90.69
42621;BME280;28252;53.336;-6.298;2023-03-01T01:45:15;103226.84;;;20.30;90.50
42621;BME280;28252;53.336;-6.298;2023-03-01T01:45:45;103225.09;;;20.29;90.66
42621;BME280;28252;53.336;-6.298;2023-03-01T01:47:04;103218.94;;;20.27;90.35
42621;BME280;28252;53.336;-6.298;2023-03-01T01:47:36;103222.53;;;20.28;90.53
42621;BME280;28252;53.336;-6.298;2023-03-01T01:48:14;103218.94;;;20.27;90.17
42621;BME280;28252;53.336;-6.298;2023-03-01T01:49:01;103215.50;;;20.25;90.90
42621;BME280;28252;53.336;-6.298;2023-03-01T01:49:36;103217.34;;;20.25;90.27
42621;BME280;28252;53.336;-6.298;2023-03-01T01:50:10;103216.44;;;20.24;90.43
42621;BME280;28252;53.336;-6.298;2023-03-01T01:50:51;103215.59;;;20.24;90.78
42621;BME280;28252;53.336;-6.298;2023-03-01T01:51:29;103214.75;;;20.23;90.85
42621;BME280;28252;53.336;-6.298;2023-03-01T01:52:45;103211.28;;;20.21;90.53
42621;BME280;28252;53.336;-6.298;2023-03-01T01:53:18;103208.56;;;20.21;90.54
42621;BME280;28252;53.336;-6.298;2023-03-01T01:53:53;103203.16;;;20.21;91.09
42621;BME280;28252;53.336;-6.298;2023-03-01T01:54:35;103207.69;;;20.21;90.46
42621;BME280;28252;53.336;-6.298;2023-03-01T01:55:10;103202.38;;;20.19;90.53
42621;BME280;28252;53.336;-6.298;2023-03-01T01:55:45;103205.09;;;20.19;90.98
42621;BME280;28252;53.336;-6.298;2023-03-01T01:56:20;103205.34;;;20.16;90.99
42621;BME280;28252;53.336;-6.298;2023-03-01T01:57:00;103204.34;;;20.17;91.06
42621;BME280;28252;53.336;-6.298;2023-03-01T01:57:53;103197.22;;;20.16;90.95
42621;BME280;28252;53.336;-6.298;2023-03-01T01:58:30;103205.44;;;20.14;90.82
42621;BME280;28252;53.336;-6.298;2023-03-01T01:59:06;103205.34;;;20.16;91.02
42621;BME280;28252;53.336;-6.298;2023-03-01T01:59:42;103206.28;;;20.15;90.92
42621;BME280;28252;53.336;-6.298;2023-03-01T02:00:19;103203.69;;;20.13;91.03
42621;BME280;28252;53.336;-6.298;2023-03-01T02:00:50;103202.84;;;20.13;90.85
42621;BME280;28252;53.336;-6.298;2023-03-01T02:01:25;103195.69;;;20.12;90.87
42621;BME280;28252;53.336;-6.298;2023-03-01T02:02:02;103198.38;;;20.12;91.44
42621;BME280;28252;53.336;-6.298;2023-03-01T02:02:34;103197.53;;;20.11;91.53
42621;BME280;28252;53.336;-6.298;2023-03-01T02:03:09;103201.19;;;20.10;91.05
42621;BME280;28252;53.336;-6.298;2023-03-01T02:03:45;103197.63;;;20.10;91.32
42621;BME280;28252;53.336;-6.298;2023-03-01T02:04:19;103197.63;;;20.10;91.14
42621;BME280;28252;53.336;-6.298;2023-03-01T02:04:55;103196.78;;;20.09;91.38
42621;BME280;28252;53.336;-6.298;2023-03-01T02:05:40;103190.47;;;20.09;91.17
42621;BME280;28252;53.336;-6.298;2023-03-01T02:06:20;103189.63;;;20.08;91.36
42621;BME280;28252;53.336;-6.298;2023-03-01T02:07:00;103194.19;;;20.08;91.50
42621;BME280;28252;53.336;-6.298;2023-03-01T02:07:34;103194.19;;;20.08;91.46
42621;BME280;28252;53.336;-6.298;2023-03-01T02:08:08;103187.88;;;20.07;91.64
42621;BME280;28252;53.336;-6.298;2023-03-01T02:08:41;103192.44;;;20.07;91.25
42621;BME280;28252;53.336;-6.298;2023-03-01T02:09:13;103187.03;;;20.07;91.31
42621;BME280;28252;53.336;-6.298;2023-03-01T02:09:50;103187.03;;;20.07;91.70
42621;BME280;28252;53.336;-6.298;2023-03-01T02:10:25;103181.63;;;20.07;91.33
42621;BME280;28252;53.336;-6.298;2023-03-01T02:11:02;103185.31;;;20.06;91.93
42621;BME280;28252;53.336;-6.298;2023-03-01T02:11:36;103181.72;;;20.05;92.02
42621;BME280;28252;53.336;-6.298;2023-03-01T02:12:10;103179.03;;;20.05;91.65
42621;BME280;28252;53.336;-6.298;2023-03-01T02:12:44;103170.16;;;20.03;91.50
42621;BME280;28252;53.336;-6.298;2023-03-01T02:13:18;103171.00;;;20.04;92.02
42621;BME280;28252;53.336;-6.298;2023-03-01T02:13:54;103171.00;;;20.04;91.89
42621;BME280;28252;53.336;-6.298;2023-03-01T02:14:28;103169.28;;;20.03;92.03
42621;BME280;28252;53.336;-6.298;2023-03-01T02:14:59;103173.81;;;20.02;91.81
42621;BME280;28252;53.336;-6.298;2023-03-01T02:15:35;103170.25;;;20.02;91.85
42621;BME280;28252;53.336;-6.298;2023-03-01T02:16:11;103160.44;;;20.01;91.96
42621;BME280;28252;53.336;-6.298;2023-03-01T02:16:46;103159.44;;;20.02;91.66
42621;BME280;28252;53.336;-6.298;2023-03-01T02:17:19;103160.44;;;20.01;91.79
42621;BME280;28252;53.336;-6.298;2023-03-01T02:17:56;103159.53;;;20.00;91.30
42621;BME280;28252;53.336;-6.298;2023-03-01T02:18:29;103157.72;;;20.01;91.72
42621;BME280;28252;53.336;-6.298;2023-03-01T02:19:01;103162.25;;;20.00;92.23
42621;BME280;28252;53.336;-6.298;2023-03-01T02:20:03;103160.44;;;20.01;91.63
42621;BME280;28252;53.336;-6.298;2023-03-01T02:22:43;103153.38;;;19.98;92.23
42621;BME280;28252;53.336;-6.298;2023-03-01T02:22:57;103153.50;;;19.96;91.96
42621;BME280;28252;53.336;-6.298;2023-03-01T02:23:33;103149.81;;;19.98;91.92
42621;BME280;28252;53.336;-6.298;2023-03-01T02:24:18;103154.47;;;19.95;91.79
42621;BME280;28252;53.336;-6.298;2023-03-01T02:26:45;103142.88;;;19.93;93.02
42621;BME280;28252;53.336;-6.298;2023-03-01T02:27:19;103142.88;;;19.93;92.45
42621;BME280;28252;53.336;-6.298;2023-03-01T02:28:18;103152.94;;;19.91;92.33
42621;BME280;28252;53.336;-6.298;2023-03-01T02:28:49;103142.13;;;19.91;92.69
42621;BME280;28252;53.336;-6.298;2023-03-01T02:29:24;103148.41;;;19.92;92.61
42621;BME280;28252;53.336;-6.298;2023-03-01T02:29:58;103150.25;;;19.91;92.69
42621;BME280;28252;53.336;-6.298;2023-03-01T02:30:31;103149.41;;;19.91;92.93
42621;BME280;28252;53.336;-6.298;2023-03-01T02:31:08;103141.38;;;19.89;93.05
42621;BME280;28252;53.336;-6.298;2023-03-01T02:32:00;103141.38;;;19.89;92.80
42621;BME280;28252;53.336;-6.298;2023-03-01T02:32:33;103145.03;;;19.88;93.06
42621;BME280;28252;53.336;-6.298;2023-03-01T02:33:07;103138.78;;;19.88;92.46
42621;BME280;28252;53.336;-6.298;2023-03-01T02:33:38;103145.03;;;19.88;93.16
42621;BME280;28252;53.336;-6.298;2023-03-01T02:34:17;103150.47;;;19.88;92.91
42621;BME280;28252;53.336;-6.298;2023-03-01T02:34:54;103147.00;;;19.86;92.72
42621;BME280;28252;53.336;-6.298;2023-03-01T02:35:32;103148.84;;;19.86;92.77
42621;BME280;28252;53.336;-6.298;2023-03-01T02:36:09;103144.28;;;19.86;92.91
42621;BME280;28252;53.336;-6.298;2023-03-01T02:36:49;103142.44;;;19.87;92.58
42621;BME280;28252;53.336;-6.298;2023-03-01T02:37:21;103139.84;;;19.85;92.78
42621;BME280;28252;53.336;-6.298;2023-03-01T02:37:55;103146.16;;;19.86;92.32
42621;BME280;28252;53.336;-6.298;2023-03-01T02:38:32;103149.72;;;19.86;92.93
42621;BME280;28252;53.336;-6.298;2023-03-01T02:39:06;103147.09;;;19.85;92.91
42621;BME280;28252;53.336;-6.298;2023-03-01T02:39:46;103139.09;;;19.83;93.01
42621;BME280;28252;53.336;-6.298;2023-03-01T02:40:18;103142.69;;;19.84;93.10
42621;BME280;28252;53.336;-6.298;2023-03-01T02:40:56;103145.50;;;19.82;92.79
42621;BME280;28252;53.336;-6.298;2023-03-01T02:41:28;103136.41;;;19.83;92.97
42621;BME280;28252;53.336;-6.298;2023-03-01T02:42:01;103137.38;;;19.82;93.09
42621;BME280;28252;53.336;-6.298;2023-03-01T02:42:36;103138.34;;;19.81;92.71
42621;BME280;28252;53.336;-6.298;2023-03-01T02:43:17;103132.94;;;19.81;92.91
42621;BME280;28252;53.336;-6.298;2023-03-01T02:43:52;103132.94;;;19.81;93.18
42621;BME280;28252;53.336;-6.298;2023-03-01T02:44:28;103138.34;;;19.81;92.99
42621;BME280;28252;53.336;-6.298;2023-03-01T02:45:01;103132.19;;;19.79;93.48
42621;BME280;28252;53.336;-6.298;2023-03-01T02:45:35;103131.19;;;19.80;93.52
42621;BME280;28252;53.336;-6.298;2023-03-01T02:46:18;103134.91;;;19.79;93.26
42621;BME280;28252;53.336;-6.298;2023-03-01T02:46:55;103136.75;;;19.78;93.43
42621;BME280;28252;53.336;-6.298;2023-03-01T02:47:32;103136.84;;;19.77;93.47
42621;BME280;28252;53.336;-6.298;2023-03-01T02:48:05;103136.84;;;19.77;93.76
42621;BME280;28252;53.336;-6.298;2023-03-01T02:48:40;103131.44;;;19.77;93.72
42621;BME280;28252;53.336;-6.298;2023-03-01T02:49:18;103139.56;;;19.77;93.17
42621;BME280;28252;53.336;-6.298;2023-03-01T02:49:52;103135.09;;;19.76;93.46
42621;BME280;28252;53.336;-6.298;2023-03-01T02:54:31;103122.66;;;19.73;93.72
42621;BME280;28252;53.336;-6.298;2023-03-01T02:55:15;103124.47;;;19.73;93.21
42621;BME280;28252;53.336;-6.298;2023-03-01T02:55:50;103127.16;;;19.73;93.31
42621;BME280;28252;53.336;-6.298;2023-03-01T03:02:00;103131.81;;;19.71;93.31
42621;BME280;28252;53.336;-6.298;2023-03-01T03:02:31;103119.28;;;19.70;93.63
42621;BME280;28252;53.336;-6.298;2023-03-01T03:03:15;103120.25;;;19.69;93.30
42621;BME280;28252;53.336;-6.298;2023-03-01T03:03:51;103117.56;;;19.69;93.19
42621;BME280;28252;53.336;-6.298;2023-03-01T03:04:23;103112.16;;;19.69;93.12
42621;BME280;28252;53.336;-6.298;2023-03-01T03:04:59;103126.63;;;19.68;93.37
42621;BME280;28252;53.336;-6.298;2023-03-01T03:05:32;103117.56;;;19.69;93.12
42621;BME280;28252;53.336;-6.298;2023-03-01T03:06:06;103115.81;;;19.68;93.62
42621;BME280;28252;53.336;-6.298;2023-03-01T03:06:37;103119.50;;;19.67;93.31
42621;BME280;28252;53.336;-6.298;2023-03-01T03:07:12;103114.09;;;19.67;93.38
42621;BME280;28252;53.336;-6.298;2023-03-01T03:07:46;103122.31;;;19.65;94.27
42621;BME280;28252;53.336;-6.298;2023-03-01T03:08:17;103111.50;;;19.65;93.64
42621;BME280;28252;53.336;-6.298;2023-03-01T03:08:58;103115.16;;;19.64;94.20
42621;BME280;28252;53.336;-6.298;2023-03-01T03:09:31;103117.97;;;19.63;94.25
42621;BME280;28252;53.336;-6.298;2023-03-01T03:10:06;103120.69;;;19.63;94.16
42621;BME280;28252;53.336;-6.298;2023-03-01T03:10:41;103107.16;;;19.63;94.36
42621;BME280;28252;53.336;-6.298;2023-03-01T03:11:18;103109.00;;;19.62;94.11
42621;BME280;28252;53.336;-6.298;2023-03-01T03:11:53;103110.84;;;19.62;94.03
42621;BME280;28252;53.336;-6.298;2023-03-01T03:17:00;103105.66;;;19.58;93.81
42621;BME280;28252;53.336;-6.298;2023-03-01T03:17:37;103103.06;;;19.57;94.25
42621;BME280;28252;53.336;-6.298;2023-03-01T03:18:15;103103.06;;;19.57;93.73
42621;BME280;28252;53.336;-6.298;2023-03-01T03:18:46;103101.31;;;19.56;94.03
42621;BME280;28252;53.336;-6.298;2023-03-01T03:19:24;103113.03;;;19.56;94.18
42621;BME280;28252;53.336;-6.298;2023-03-01T03:19:55;103100.47;;;19.55;94.04
42621;BME280;28252;53.336;-6.298;2023-03-01T03:20:27;103101.31;;;19.56;94.09
42621;BME280;28252;53.336;-6.298;2023-03-01T03:21:01;103104.13;;;19.54;93.98
42621;BME280;28252;53.336;-6.298;2023-03-01T03:21:35;103105.13;;;19.53;94.17
42621;BME280;28252;53.336;-6.298;2023-03-01T03:22:08;103106.81;;;19.54;93.97